sensor_id;sensor_type;location;lat;lon;timestamp;pressure;altitude;pressure_sealevel;temperature
72054;BMP280;59918;51.280;7.950;2023-10-19T00:00:02;96015.47;;;10.51
72054;BMP280;59918;51.280;7.950;2023-10-19T00:02:27;96014.25;;;10.54
72054;BMP280;59918;51.280;7.950;2023-10-19T00:04:53;96003.66;;;10.50
72054;BMP280;59918;51.280;7.950;2023-10-19T00:07:18;96004.19;;;10.52
72054;BMP280;59918;51.280;7.950;2023-10-19T00:09:43;96008.06;;;10.55
72054;BMP280;59918;51.280;7.950;2023-10-19T00:12:08;96006.25;;;10.55
72054;BMP280;59918;51.280;7.950;2023-10-19T00:14:34;95993.19;;;10.56
72054;BMP280;59918;51.280;7.950;2023-10-19T00:16:59;95987.56;;;10.59
72054;BMP280;59918;51.280;7.950;2023-10-19T00:19:24;95995.53;;;10.63
72054;BMP280;59918;51.280;7.950;2023-10-19T00:21:49;95986.31;;;10.67
72054;BMP280;59918;51.280;7.950;2023-10-19T00:24:15;95969.63;;;10.69
72054;BMP280;59918;51.280;7.950;2023-10-19T00:26:40;95975.84;;;10.73
72054;BMP280;59918;51.280;7.950;2023-10-19T00:29:05;95984.84;;;10.76
72054;BMP280;59918;51.280;7.950;2023-10-19T00:31:30;95980.47;;;10.76
72054;BMP280;59918;51.280;7.950;2023-10-19T00:33:56;95968.41;;;10.77
72054;BMP280;59918;51.280;7.950;2023-10-19T00:36:21;95967.13;;;10.79
72054;BMP280;59918;51.280;7.950;2023-10-19T00:38:47;95974.09;;;10.84
72054;BMP280;59918;51.280;7.950;2023-10-19T00:41:12;95960.75;;;10.87
72054;BMP280;59918;51.280;7.950;2023-10-19T00:43:42;95960.00;;;10.91
72054;BMP280;59918;51.280;7.950;2023-10-19T00:46:08;95952.06;;;10.93
72054;BMP280;59918;51.280;7.950;2023-10-19T00:48:34;95949.50;;;10.97
72054;BMP280;59918;51.280;7.950;2023-10-19T00:50:59;95955.94;;;11.00
72054;BMP280;59918;51.280;7.950;2023-10-19T00:53:24;95953.63;;;11.03
72054;BMP280;59918;51.280;7.950;2023-10-19T00:55:50;95943.63;;;11.07
72054;BMP280;59918;51.280;7.950;2023-10-19T00:58:15;95966.25;;;11.10
72054;BMP280;59918;51.280;7.950;2023-10-19T01:00:40;95952.91;;;11.13
72054;BMP280;59918;51.280;7.950;2023-10-19T01:03:06;95953.19;;;11.16
72054;BMP280;59918;51.280;7.950;2023-10-19T01:05:32;95945.22;;;11.18
72054;BMP280;59918;51.280;7.950;2023-10-19T01:07:58;95947.53;;;11.19
72054;BMP280;59918;51.280;7.950;2023-10-19T01:10:23;95958.34;;;11.21
72054;BMP280;59918;51.280;7.950;2023-10-19T01:12:49;95952.19;;;11.22
72054;BMP280;59918;51.280;7.950;2023-10-19T01:15:18;95949.63;;;11.27
72054;BMP280;59918;51.280;7.950;2023-10-19T01:17:51;95946.56;;;11.30
72054;BMP280;59918;51.280;7.950;2023-10-19T01:20:21;95961.72;;;11.31
72054;BMP280;59918;51.280;7.950;2023-10-19T01:25:13;95953.81;;;11.38
72054;BMP280;59918;51.280;7.950;2023-10-19T01:27:38;95967.19;;;11.40
72054;BMP280;59918;51.280;7.950;2023-10-19T01:30:04;95965.91;;;11.37
72054;BMP280;59918;51.280;7.950;2023-10-19T01:32:29;95953.28;;;11.36
72054;BMP280;59918;51.280;7.950;2023-10-19T01:34:54;95970.25;;;11.37
72054;BMP280;59918;51.280;7.950;2023-10-19T01:37:20;95962.53;;;11.32
72054;BMP280;59918;51.280;7.950;2023-10-19T01:39:45;95957.91;;;11.34
72054;BMP280;59918;51.280;7.950;2023-10-19T01:42:10;95966.91;;;11.36
72054;BMP280;59918;51.280;7.950;2023-10-19T01:44:35;95963.56;;;11.36
72054;BMP280;59918;51.280;7.950;2023-10-19T01:47:01;95965.09;;;11.37
72054;BMP280;59918;51.280;7.950;2023-10-19T01:49:26;95954.81;;;11.37
72054;BMP280;59918;51.280;7.950;2023-10-19T01:51:52;95949.19;;;11.40
72054;BMP280;59918;51.280;7.950;2023-10-19T01:54:17;95952.28;;;11.42
72054;BMP280;59918;51.280;7.950;2023-10-19T01:56:43;95962.34;;;11.43
72054;BMP280;59918;51.280;7.950;2023-10-19T01:59:08;95948.19;;;11.46
72054;BMP280;59918;51.280;7.950;2023-10-19T02:01:33;95942.53;;;11.49
72054;BMP280;59918;51.280;7.950;2023-10-19T02:04:01;95944.09;;;11.50
72054;BMP280;59918;51.280;7.950;2023-10-19T02:06:28;95940.25;;;11.52
72054;BMP280;59918;51.280;7.950;2023-10-19T02:09:09;95937.94;;;11.56
72054;BMP280;59918;51.280;7.950;2023-10-19T02:11:35;95932.78;;;11.56
72054;BMP280;59918;51.280;7.950;2023-10-19T02:14:00;95926.13;;;11.60
72054;BMP280;59918;51.280;7.950;2023-10-19T02:16:26;95929.72;;;11.64
72054;BMP280;59918;51.280;7.950;2023-10-19T02:18:52;95918.91;;;11.66
72054;BMP280;59918;51.280;7.950;2023-10-19T02:21:17;95922.78;;;11.69
72054;BMP280;59918;51.280;7.950;2023-10-19T02:23:42;95917.66;;;11.69
72054;BMP280;59918;51.280;7.950;2023-10-19T02:26:08;95921.50;;;11.71
72054;BMP280;59918;51.280;7.950;2023-10-19T02:28:33;95923.31;;;11.71
72054;BMP280;59918;51.280;7.950;2023-10-19T02:30:59;95919.69;;;11.72
72054;BMP280;59918;51.280;7.950;2023-10-19T02:33:24;95918.41;;;11.74
72054;BMP280;59918;51.280;7.950;2023-10-19T02:35:49;95915.84;;;11.74
72054;BMP280;59918;51.280;7.950;2023-10-19T02:38:14;95914.81;;;11.75
72054;BMP280;59918;51.280;7.950;2023-10-19T02:40:40;95904.28;;;11.77
72054;BMP280;59918;51.280;7.950;2023-10-19T02:43:05;95912.00;;;11.77
72054;BMP280;59918;51.280;7.950;2023-10-19T02:45:30;95910.19;;;11.77
72054;BMP280;59918;51.280;7.950;2023-10-19T02:47:55;95917.91;;;11.82
72054;BMP280;59918;51.280;7.950;2023-10-19T02:50:20;95921.78;;;11.85
72054;BMP280;59918;51.280;7.950;2023-10-19T02:52:46;95916.88;;;11.88
72054;BMP280;59918;51.280;7.950;2023-10-19T02:55:11;95914.56;;;11.92
72054;BMP280;59918;51.280;7.950;2023-10-19T02:57:37;95915.63;;;11.96
72054;BMP280;59918;51.280;7.950;2023-10-19T03:00:05;95913.81;;;12.01
72054;BMP280;59918;51.280;7.950;2023-10-19T03:02:32;95908.69;;;12.06
72054;BMP280;59918;51.280;7.950;2023-10-19T03:04:57;95911.50;;;12.09
72054;BMP280;59918;51.280;7.950;2023-10-19T03:07:22;95905.09;;;12.12
72054;BMP280;59918;51.280;7.950;2023-10-19T03:09:48;95913.84;;;12.16
72054;BMP280;59918;51.280;7.950;2023-10-19T03:12:13;95912.28;;;12.20
72054;BMP280;59918;51.280;7.950;2023-10-19T03:14:38;95908.94;;;12.24
72054;BMP280;59918;51.280;7.950;2023-10-19T03:17:03;95913.06;;;12.30
72054;BMP280;59918;51.280;7.950;2023-10-19T03:19:29;95908.69;;;12.36
72054;BMP280;59918;51.280;7.950;2023-10-19T03:21:54;95900.16;;;12.40
72054;BMP280;59918;51.280;7.950;2023-10-19T03:24:20;95893.97;;;12.46
72054;BMP280;59918;51.280;7.950;2023-10-19T03:26:45;95894.75;;;12.51
72054;BMP280;59918;51.280;7.950;2023-10-19T03:29:10;95891.38;;;12.51
72054;BMP280;59918;51.280;7.950;2023-10-19T03:31:35;95890.59;;;12.50
72054;BMP280;59918;51.280;7.950;2023-10-19T03:34:00;95885.47;;;12.50
72054;BMP280;59918;51.280;7.950;2023-10-19T03:36:26;95883.38;;;12.52
72054;BMP280;59918;51.280;7.950;2023-10-19T03:38:52;95881.84;;;12.56
72054;BMP280;59918;51.280;7.950;2023-10-19T03:41:18;95889.06;;;12.59
72054;BMP280;59918;51.280;7.950;2023-10-19T03:43:43;95875.88;;;12.61
72054;BMP280;59918;51.280;7.950;2023-10-19T03:46:08;95873.59;;;12.59
72054;BMP280;59918;51.280;7.950;2023-10-19T03:48:33;95880.03;;;12.57
72054;BMP280;59918;51.280;7.950;2023-10-19T03:50:59;95878.75;;;12.59
72054;BMP280;59918;51.280;7.950;2023-10-19T03:53:24;95873.84;;;12.63
72054;BMP280;59918;51.280;7.950;2023-10-19T03:55:49;95882.34;;;12.63
72054;BMP280;59918;51.280;7.950;2023-10-19T03:58:14;95882.88;;;12.65
72054;BMP280;59918;51.280;7.950;2023-10-19T04:00:40;95884.91;;;12.68
72054;BMP280;59918;51.280;7.950;2023-10-19T04:03:05;95868.16;;;12.71
72054;BMP280;59918;51.280;7.950;2023-10-19T04:05:30;95873.06;;;12.67
72054;BMP280;59918;51.280;7.950;2023-10-19T04:07:56;95869.47;;;12.63
72054;BMP280;59918;51.280;7.950;2023-10-19T04:10:21;95873.84;;;12.58
72054;BMP280;59918;51.280;7.950;2023-10-19T04:12:47;95871.00;;;12.54
72054;BMP280;59918;51.280;7.950;2023-10-19T04:15:12;95873.09;;;12.52
72054;BMP280;59918;51.280;7.950;2023-10-19T04:17:37;95865.38;;;12.47
72054;BMP280;59918;51.280;7.950;2023-10-19T04:20:03;95863.31;;;12.44
72054;BMP280;59918;51.280;7.950;2023-10-19T04:22:30;95867.19;;;12.42
72054;BMP280;59918;51.280;7.950;2023-10-19T04:24:55;95861.00;;;12.38
72054;BMP280;59918;51.280;7.950;2023-10-19T04:27:21;95857.66;;;12.33
72054;BMP280;59918;51.280;7.950;2023-10-19T04:29:46;95858.44;;;12.28
72054;BMP280;59918;51.280;7.950;2023-10-19T04:32:11;95859.19;;;12.29
72054;BMP280;59918;51.280;7.950;2023-10-19T04:34:37;95844.50;;;12.29
72054;BMP280;59918;51.280;7.950;2023-10-19T04:37:02;95853.78;;;12.30
72054;BMP280;59918;51.280;7.950;2023-10-19T04:39:27;95859.72;;;12.36
72054;BMP280;59918;51.280;7.950;2023-10-19T04:41:53;95855.06;;;12.42
72054;BMP280;59918;51.280;7.950;2023-10-19T04:44:18;95860.72;;;12.44
72054;BMP280;59918;51.280;7.950;2023-10-19T04:46:43;95855.56;;;12.49
72054;BMP280;59918;51.280;7.950;2023-10-19T04:49:09;95849.88;;;12.52
72054;BMP280;59918;51.280;7.950;2023-10-19T04:51:34;95850.66;;;12.58
72054;BMP280;59918;51.280;7.950;2023-10-19T04:54:00;95841.88;;;12.64
72054;BMP280;59918;51.280;7.950;2023-10-19T04:56:25;95843.16;;;12.66
72054;BMP280;59918;51.280;7.950;2023-10-19T04:58:50;95849.31;;;12.70
72054;BMP280;59918;51.280;7.950;2023-10-19T05:01:16;95843.66;;;12.73
72054;BMP280;59918;51.280;7.950;2023-10-19T05:03:41;95845.97;;;12.75
72054;BMP280;59918;51.280;7.950;2023-10-19T05:06:07;95842.34;;;12.75
72054;BMP280;59918;51.280;7.950;2023-10-19T05:08:32;95844.16;;;12.75
72054;BMP280;59918;51.280;7.950;2023-10-19T05:10:58;95844.66;;;12.77
72054;BMP280;59918;51.280;7.950;2023-10-19T05:13:24;95840.53;;;12.76
72054;BMP280;59918;51.280;7.950;2023-10-19T05:15:49;95837.94;;;12.76
72054;BMP280;59918;51.280;7.950;2023-10-19T05:18:17;95831.78;;;12.77
72054;BMP280;59918;51.280;7.950;2023-10-19T05:20:42;95846.19;;;12.78
72054;BMP280;59918;51.280;7.950;2023-10-19T05:23:08;95848.56;;;12.79
72054;BMP280;59918;51.280;7.950;2023-10-19T05:25:34;95847.25;;;12.82
72054;BMP280;59918;51.280;7.950;2023-10-19T05:27:59;95848.81;;;12.83
72054;BMP280;59918;51.280;7.950;2023-10-19T05:30:24;95849.56;;;12.83
72054;BMP280;59918;51.280;7.950;2023-10-19T05:32:50;95850.09;;;12.85
72054;BMP280;59918;51.280;7.950;2023-10-19T05:35:16;95857.06;;;12.85
72054;BMP280;59918;51.280;7.950;2023-10-19T05:37:41;95846.19;;;12.88
72054;BMP280;59918;51.280;7.950;2023-10-19T05:40:07;95846.19;;;12.88
72054;BMP280;59918;51.280;7.950;2023-10-19T05:42:32;95850.06;;;12.90
72054;BMP280;59918;51.280;7.950;2023-10-19T05:44:57;95849.03;;;12.91
72054;BMP280;59918;51.280;7.950;2023-10-19T05:47:25;95851.34;;;12.93
72054;BMP280;59918;51.280;7.950;2023-10-19T05:49:50;95845.94;;;12.94
72054;BMP280;59918;51.280;7.950;2023-10-19T05:52:15;95849.03;;;12.96
72054;BMP280;59918;51.280;7.950;2023-10-19T05:54:41;95852.13;;;12.98
72054;BMP280;59918;51.280;7.950;2023-10-19T05:57:06;95853.38;;;13.01
72054;BMP280;59918;51.280;7.950;2023-10-19T05:59:31;95859.06;;;13.03
72054;BMP280;59918;51.280;7.950;2023-10-19T06:01:56;95852.84;;;13.04
72054;BMP280;59918;51.280;7.950;2023-10-19T06:04:22;95859.81;;;13.08
72054;BMP280;59918;51.280;7.950;2023-10-19T06:06:47;95861.84;;;13.11
72054;BMP280;59918;51.280;7.950;2023-10-19T06:09:12;95857.19;;;13.13
72054;BMP280;59918;51.280;7.950;2023-10-19T06:11:38;95857.44;;;13.16
72054;BMP280;59918;51.280;7.950;2023-10-19T06:14:04;95856.91;;;13.19
72054;BMP280;59918;51.280;7.950;2023-10-19T06:16:29;95853.28;;;13.20
72054;BMP280;59918;51.280;7.950;2023-10-19T06:18:55;95854.81;;;13.21
72054;BMP280;59918;51.280;7.950;2023-10-19T06:21:20;95857.66;;;13.25
72054;BMP280;59918;51.280;7.950;2023-10-19T06:23:45;95863.81;;;13.29
72054;BMP280;59918;51.280;7.950;2023-10-19T06:26:11;95862.03;;;13.29
72054;BMP280;59918;51.280;7.950;2023-10-19T06:28:36;95866.41;;;13.29
72054;BMP280;59918;51.280;7.950;2023-10-19T06:31:01;95867.72;;;13.31
72054;BMP280;59918;51.280;7.950;2023-10-19T06:33:27;95868.22;;;13.33
72054;BMP280;59918;51.280;7.950;2023-10-19T06:35:52;95873.38;;;13.33
72054;BMP280;59918;51.280;7.950;2023-10-19T06:38:17;95868.72;;;13.35
72054;BMP280;59918;51.280;7.950;2023-10-19T06:40:42;95869.22;;;13.37
72054;BMP280;59918;51.280;7.950;2023-10-19T06:43:07;95874.88;;;13.39
72054;BMP280;59918;51.280;7.950;2023-10-19T06:45:33;95876.16;;;13.42
72054;BMP280;59918;51.280;7.950;2023-10-19T06:47:58;95871.75;;;13.47
72054;BMP280;59918;51.280;7.950;2023-10-19T06:50:24;95874.84;;;13.49
72054;BMP280;59918;51.280;7.950;2023-10-19T06:52:49;95877.38;;;13.54
72054;BMP280;59918;51.280;7.950;2023-10-19T06:55:16;95881.72;;;13.58
72054;BMP280;59918;51.280;7.950;2023-10-19T06:57:42;95877.88;;;13.61
72054;BMP280;59918;51.280;7.950;2023-10-19T07:00:08;95878.09;;;13.64
72054;BMP280;59918;51.280;7.950;2023-10-19T07:02:33;95872.66;;;13.66
72054;BMP280;59918;51.280;7.950;2023-10-19T07:04:58;95883.22;;;13.69
72054;BMP280;59918;51.280;7.950;2023-10-19T07:07:24;95872.63;;;13.71
72054;BMP280;59918;51.280;7.950;2023-10-19T07:09:49;95868.47;;;13.75
72054;BMP280;59918;51.280;7.950;2023-10-19T07:12:16;95875.41;;;13.79
72054;BMP280;59918;51.280;7.950;2023-10-19T07:14:41;95871.00;;;13.80
72054;BMP280;59918;51.280;7.950;2023-10-19T07:17:06;95875.66;;;13.83
72054;BMP280;59918;51.280;7.950;2023-10-19T07:19:31;95879.50;;;13.85
72054;BMP280;59918;51.280;7.950;2023-10-19T07:21:57;95889.28;;;13.88
72054;BMP280;59918;51.280;7.950;2023-10-19T07:24:24;95883.34;;;13.92
72054;BMP280;59918;51.280;7.950;2023-10-19T07:26:50;95880.50;;;13.94
72054;BMP280;59918;51.280;7.950;2023-10-19T07:29:15;95885.38;;;13.95
72054;BMP280;59918;51.280;7.950;2023-10-19T07:31:41;95890.53;;;14.00
72054;BMP280;59918;51.280;7.950;2023-10-19T07:34:06;95890.78;;;14.04
72054;BMP280;59918;51.280;7.950;2023-10-19T07:36:31;95886.31;;;14.09
72054;BMP280;59918;51.280;7.950;2023-10-19T07:38:56;95893.00;;;14.15
72054;BMP280;59918;51.280;7.950;2023-10-19T07:41:22;95887.03;;;14.20
72054;BMP280;59918;51.280;7.950;2023-10-19T07:43:47;95885.47;;;14.23
72054;BMP280;59918;51.280;7.950;2023-10-19T07:46:12;95889.81;;;14.28
72054;BMP280;59918;51.280;7.950;2023-10-19T07:48:38;95890.31;;;14.30
72054;BMP280;59918;51.280;7.950;2023-10-19T07:51:03;95890.81;;;14.32
72054;BMP280;59918;51.280;7.950;2023-10-19T07:53:28;95899.06;;;14.34
72054;BMP280;59918;51.280;7.950;2023-10-19T07:55:54;95902.91;;;14.36
72054;BMP280;59918;51.280;7.950;2023-10-19T07:58:19;95896.41;;;14.39
72054;BMP280;59918;51.280;7.950;2023-10-19T08:00:44;95906.22;;;14.42
72054;BMP280;59918;51.280;7.950;2023-10-19T08:03:09;95903.09;;;14.45
72054;BMP280;59918;51.280;7.950;2023-10-19T08:05:41;95906.16;;;14.47
72054;BMP280;59918;51.280;7.950;2023-10-19T08:08:06;95897.91;;;14.45
72054;BMP280;59918;51.280;7.950;2023-10-19T08:10:31;95897.66;;;14.46
72054;BMP280;59918;51.280;7.950;2023-10-19T08:12:57;95898.16;;;14.48
72054;BMP280;59918;51.280;7.950;2023-10-19T08:15:22;95905.38;;;14.51
72054;BMP280;59918;51.280;7.950;2023-10-19T08:17:49;95890.59;;;14.57
72054;BMP280;59918;51.280;7.950;2023-10-19T08:20:15;95893.09;;;14.66
72054;BMP280;59918;51.280;7.950;2023-10-19T08:22:41;95894.63;;;14.67
72054;BMP280;59918;51.280;7.950;2023-10-19T08:25:06;95893.53;;;14.73
72054;BMP280;59918;51.280;7.950;2023-10-19T08:27:31;95898.66;;;14.78
72054;BMP280;59918;51.280;7.950;2023-10-19T08:29:57;95906.09;;;14.85
72054;BMP280;59918;51.280;7.950;2023-10-19T08:32:22;95902.63;;;14.94
72054;BMP280;59918;51.280;7.950;2023-10-19T08:34:47;95896.84;;;15.02
72054;BMP280;59918;51.280;7.950;2023-10-19T08:37:13;95896.25;;;15.10
72054;BMP280;59918;51.280;7.950;2023-10-19T08:39:38;95890.91;;;15.25
72054;BMP280;59918;51.280;7.950;2023-10-19T08:42:04;95894.94;;;15.35
72054;BMP280;59918;51.280;7.950;2023-10-19T08:44:30;95890.94;;;15.43
72054;BMP280;59918;51.280;7.950;2023-10-19T08:46:55;95893.19;;;15.49
72054;BMP280;59918;51.280;7.950;2023-10-19T08:49:21;95895.16;;;15.57
72054;BMP280;59918;51.280;7.950;2023-10-19T08:51:46;95887.78;;;15.64
72054;BMP280;59918;51.280;7.950;2023-10-19T08:54:13;95891.31;;;15.73
72054;BMP280;59918;51.280;7.950;2023-10-19T08:56:38;95887.81;;;15.82
72054;BMP280;59918;51.280;7.950;2023-10-19T08:59:04;95880.16;;;15.91
72054;BMP280;59918;51.280;7.950;2023-10-19T09:01:29;95878.00;;;15.98
72054;BMP280;59918;51.280;7.950;2023-10-19T09:03:58;95880.03;;;16.01
72054;BMP280;59918;51.280;7.950;2023-10-19T09:06:24;95882.47;;;16.10
72054;BMP280;59918;51.280;7.950;2023-10-19T09:08:49;95884.50;;;16.13
72054;BMP280;59918;51.280;7.950;2023-10-19T09:11:15;95881.91;;;16.13
72054;BMP280;59918;51.280;7.950;2023-10-19T09:13:44;95881.59;;;16.15
72054;BMP280;59918;51.280;7.950;2023-10-19T09:16:09;95884.94;;;16.20
72054;BMP280;59918;51.280;7.950;2023-10-19T09:18:35;95879.66;;;16.25
72054;BMP280;59918;51.280;7.950;2023-10-19T09:21:00;95879.22;;;16.37
72054;BMP280;59918;51.280;7.950;2023-10-19T09:23:25;95874.25;;;16.53
72054;BMP280;59918;51.280;7.950;2023-10-19T09:25:51;95864.47;;;16.64
72054;BMP280;59918;51.280;7.950;2023-10-19T09:28:16;95875.06;;;16.80
72054;BMP280;59918;51.280;7.950;2023-10-19T09:30:43;95882.94;;;16.89
72054;BMP280;59918;51.280;7.950;2023-10-19T09:33:09;95881.53;;;16.96
72054;BMP280;59918;51.280;7.950;2023-10-19T09:35:35;95872.63;;;17.16
72054;BMP280;59918;51.280;7.950;2023-10-19T09:38:00;95863.44;;;17.45
72054;BMP280;59918;51.280;7.950;2023-10-19T09:40:28;95864.31;;;17.75
72054;BMP280;59918;51.280;7.950;2023-10-19T09:42:56;95861.72;;;17.75
72054;BMP280;59918;51.280;7.950;2023-10-19T09:45:25;95855.94;;;17.78
72054;BMP280;59918;51.280;7.950;2023-10-19T09:47:56;95857.81;;;18.73
72054;BMP280;59918;51.280;7.950;2023-10-19T09:50:24;95861.53;;;19.19
72054;BMP280;59918;51.280;7.950;2023-10-19T09:52:49;95847.09;;;19.04
72054;BMP280;59918;51.280;7.950;2023-10-19T09:55:35;95855.09;;;19.16
72054;BMP280;59918;51.280;7.950;2023-10-19T10:00:29;95860.53;;;19.45
72054;BMP280;59918;51.280;7.950;2023-10-19T10:02:54;95868.09;;;19.16
72054;BMP280;59918;51.280;7.950;2023-10-19T10:10:50;95840.97;;;18.70
72054;BMP280;59918;51.280;7.950;2023-10-19T10:15:54;95826.75;;;19.23
72054;BMP280;59918;51.280;7.950;2023-10-19T10:18:20;95824.97;;;20.16
72054;BMP280;59918;51.280;7.950;2023-10-19T10:20:45;95825.50;;;20.63
72054;BMP280;59918;51.280;7.950;2023-10-19T10:23:18;95817.78;;;23.60
72054;BMP280;59918;51.280;7.950;2023-10-19T10:25:47;95820.31;;;24.50
72054;BMP280;59918;51.280;7.950;2023-10-19T10:28:14;95811.50;;;25.68
72054;BMP280;59918;51.280;7.950;2023-10-19T10:36:08;95814.31;;;29.05
72054;BMP280;59918;51.280;7.950;2023-10-19T10:38:36;95810.19;;;27.71
72054;BMP280;59918;51.280;7.950;2023-10-19T10:41:01;95811.75;;;27.02
72054;BMP280;59918;51.280;7.950;2023-10-19T10:43:27;95810.72;;;28.48
72054;BMP280;59918;51.280;7.950;2023-10-19T10:45:52;95802.19;;;29.58
72054;BMP280;59918;51.280;7.950;2023-10-19T10:48:18;95800.75;;;30.69
72054;BMP280;59918;51.280;7.950;2023-10-19T10:50:43;95792.78;;;31.48
72054;BMP280;59918;51.280;7.950;2023-10-19T10:53:10;95803.41;;;31.52
72054;BMP280;59918;51.280;7.950;2023-10-19T10:55:35;95797.72;;;31.60
72054;BMP280;59918;51.280;7.950;2023-10-19T10:58:01;95812.34;;;28.99
72054;BMP280;59918;51.280;7.950;2023-10-19T11:00:26;95806.09;;;29.21
72054;BMP280;59918;51.280;7.950;2023-10-19T11:03:03;95794.91;;;29.44
72054;BMP280;59918;51.280;7.950;2023-10-19T11:05:28;95789.97;;;27.85
72054;BMP280;59918;51.280;7.950;2023-10-19T11:08:08;95803.47;;;26.18
72054;BMP280;59918;51.280;7.950;2023-10-19T11:10:33;95800.16;;;25.15
72054;BMP280;59918;51.280;7.950;2023-10-19T11:13:09;95812.72;;;24.33
72054;BMP280;59918;51.280;7.950;2023-10-19T11:15:36;95801.91;;;24.23
72054;BMP280;59918;51.280;7.950;2023-10-19T11:18:01;95802.06;;;23.87
72054;BMP280;59918;51.280;7.950;2023-10-19T11:20:26;95801.31;;;23.24
72054;BMP280;59918;51.280;7.950;2023-10-19T11:22:53;95802.19;;;23.40
72054;BMP280;59918;51.280;7.950;2023-10-19T11:25:24;95791.03;;;24.09
72054;BMP280;59918;51.280;7.950;2023-10-19T11:27:50;95787.84;;;25.04
72054;BMP280;59918;51.280;7.950;2023-10-19T11:30:29;95787.03;;;26.05
72054;BMP280;59918;51.280;7.950;2023-10-19T11:32:55;95770.28;;;29.34
72054;BMP280;59918;51.280;7.950;2023-10-19T11:35:20;95755.66;;;31.17
72054;BMP280;59918;51.280;7.950;2023-10-19T11:37:50;95756.06;;;31.33
72054;BMP280;59918;51.280;7.950;2023-10-19T11:40:15;95759.47;;;29.66
72054;BMP280;59918;51.280;7.950;2023-10-19T11:42:41;95752.41;;;29.17
72054;BMP280;59918;51.280;7.950;2023-10-19T11:45:06;95758.03;;;29.12
72054;BMP280;59918;51.280;7.950;2023-10-19T11:47:32;95757.09;;;30.25
72054;BMP280;59918;51.280;7.950;2023-10-19T11:49:57;95739.38;;;31.01
72054;BMP280;59918;51.280;7.950;2023-10-19T11:52:22;95755.31;;;29.62
72054;BMP280;59918;51.280;7.950;2023-10-19T11:54:48;95761.06;;;27.95
72054;BMP280;59918;51.280;7.950;2023-10-19T11:57:13;95780.31;;;26.45
72054;BMP280;59918;51.280;7.950;2023-10-19T11:59:38;95760.63;;;25.12
72054;BMP280;59918;51.280;7.950;2023-10-19T12:02:03;95763.00;;;24.25
72054;BMP280;59918;51.280;7.950;2023-10-19T12:04:29;95754.44;;;23.35
72054;BMP280;59918;51.280;7.950;2023-10-19T12:06:54;95761.00;;;22.58
72054;BMP280;59918;51.280;7.950;2023-10-19T12:09:19;95757.28;;;22.03
72054;BMP280;59918;51.280;7.950;2023-10-19T12:11:44;95755.53;;;21.75
72054;BMP280;59918;51.280;7.950;2023-10-19T12:14:12;95749.31;;;21.67
72054;BMP280;59918;51.280;7.950;2023-10-19T12:16:37;95757.03;;;21.64
72054;BMP280;59918;51.280;7.950;2023-10-19T12:19:03;95744.59;;;21.41
72054;BMP280;59918;51.280;7.950;2023-10-19T12:21:28;95742.44;;;21.14
72054;BMP280;59918;51.280;7.950;2023-10-19T12:23:53;95746.50;;;20.75
72054;BMP280;59918;51.280;7.950;2023-10-19T12:26:18;95744.94;;;20.45
72054;BMP280;59918;51.280;7.950;2023-10-19T12:28:44;95753.63;;;20.20
72054;BMP280;59918;51.280;7.950;2023-10-19T12:31:09;95742.75;;;20.02
72054;BMP280;59918;51.280;7.950;2023-10-19T12:33:35;95742.78;;;19.76
72054;BMP280;59918;51.280;7.950;2023-10-19T12:36:00;95743.88;;;19.59
72054;BMP280;59918;51.280;7.950;2023-10-19T12:38:26;95740.03;;;19.48
72054;BMP280;59918;51.280;7.950;2023-10-19T12:40:51;95746.00;;;19.40
72054;BMP280;59918;51.280;7.950;2023-10-19T12:43:17;95733.59;;;19.29
72054;BMP280;59918;51.280;7.950;2023-10-19T12:45:45;95729.28;;;19.24
72054;BMP280;59918;51.280;7.950;2023-10-19T12:48:10;95739.88;;;19.19
72054;BMP280;59918;51.280;7.950;2023-10-19T12:50:36;95725.31;;;19.18
72054;BMP280;59918;51.280;7.950;2023-10-19T12:53:02;95732.53;;;19.13
72054;BMP280;59918;51.280;7.950;2023-10-19T12:55:27;95722.09;;;19.04
72054;BMP280;59918;51.280;7.950;2023-10-19T12:57:53;95729.75;;;19.01
72054;BMP280;59918;51.280;7.950;2023-10-19T13:00:18;95730.94;;;18.95
72054;BMP280;59918;51.280;7.950;2023-10-19T13:02:44;95733.50;;;18.87
72054;BMP280;59918;51.280;7.950;2023-10-19T13:05:09;95739.16;;;18.72
72054;BMP280;59918;51.280;7.950;2023-10-19T13:07:34;95735.09;;;18.58
72054;BMP280;59918;51.280;7.950;2023-10-19T13:09:59;95727.72;;;18.43
72054;BMP280;59918;51.280;7.950;2023-10-19T13:12:25;95725.22;;;18.29
72054;BMP280;59918;51.280;7.950;2023-10-19T13:14:50;95725.19;;;18.21
72054;BMP280;59918;51.280;7.950;2023-10-19T13:17:15;95736.34;;;18.22
72054;BMP280;59918;51.280;7.950;2023-10-19T13:19:40;95731.28;;;18.17
72054;BMP280;59918;51.280;7.950;2023-10-19T13:22:05;95725.50;;;18.20
72054;BMP280;59918;51.280;7.950;2023-10-19T13:24:31;95727.63;;;18.18
72054;BMP280;59918;51.280;7.950;2023-10-19T13:26:56;95723.00;;;18.15
72054;BMP280;59918;51.280;7.950;2023-10-19T13:29:21;95724.88;;;18.01
72054;BMP280;59918;51.280;7.950;2023-10-19T13:31:46;95721.97;;;17.94
72054;BMP280;59918;51.280;7.950;2023-10-19T13:34:12;95720.72;;;17.91
72054;BMP280;59918;51.280;7.950;2023-10-19T13:36:37;95719.00;;;17.87
72054;BMP280;59918;51.280;7.950;2023-10-19T13:39:03;95713.03;;;17.87
72054;BMP280;59918;51.280;7.950;2023-10-19T13:41:28;95713.50;;;17.89
72054;BMP280;59918;51.280;7.950;2023-10-19T13:43:53;95705.91;;;17.92
72054;BMP280;59918;51.280;7.950;2023-10-19T13:46:19;95705.91;;;17.92
72054;BMP280;59918;51.280;7.950;2023-10-19T13:48:44;95711.69;;;17.89
72054;BMP280;59918;51.280;7.950;2023-10-19T13:51:09;95720.97;;;17.82
72054;BMP280;59918;51.280;7.950;2023-10-19T13:53:34;95716.19;;;17.75
72054;BMP280;59918;51.280;7.950;2023-10-19T13:56:00;95725.06;;;17.74
72054;BMP280;59918;51.280;7.950;2023-10-19T13:58:25;95740.47;;;17.71
72054;BMP280;59918;51.280;7.950;2023-10-19T14:00:50;95734.16;;;17.63
72054;BMP280;59918;51.280;7.950;2023-10-19T14:03:16;95738.09;;;17.61
72054;BMP280;59918;51.280;7.950;2023-10-19T14:05:45;95734.91;;;17.64
72054;BMP280;59918;51.280;7.950;2023-10-19T14:08:14;95723.75;;;17.63
72054;BMP280;59918;51.280;7.950;2023-10-19T14:10:40;95724.94;;;17.57
72054;BMP280;59918;51.280;7.950;2023-10-19T14:13:07;95719.41;;;17.51
72054;BMP280;59918;51.280;7.950;2023-10-19T14:15:33;95717.09;;;17.49
72054;BMP280;59918;51.280;7.950;2023-10-19T14:17:58;95715.66;;;17.43